Time;durP1;ratioP1;P1;durP2;ratioP2;P2;SDS_P1;SDS_P2;PMS_P1;PMS_P2;Temp;Humidity;BMP_temperature;BMP_pressure;BME280_temperature;BME280_humidity;BME280_pressure;Samples;Min_cycle;Max_cycle;Signal;HPM_P1;HPM_P2
2023/03/28 00:00:34;;;;;;;0.28;0.20;;;10.10;22.10;;;;;;6241260;22;20739;-78
2023/03/28 00:03:01;;;;;;;0.70;0.20;;;10.20;22.20;;;;;;6240339;22;20374;-79
2023/03/28 00:05:30;;;;;;;1.35;0.20;;;10.20;22.40;;;;;;6214712;23;20362;-79
2023/03/28 00:07:58;;;;;;;0.30;0.20;;;10.10;22.30;;;;;;6215174;23;20377;-79
2023/03/28 00:10:26;;;;;;;0.35;0.10;;;10.10;22.20;;;;;;6241193;23;20456;-79
2023/03/28 00:12:53;;;;;;;0.63;0.20;;;10.20;22.10;;;;;;6215718;23;20365;-79
2023/03/28 00:15:20;;;;;;;0.35;0.30;;;10.20;21.80;;;;;;6214922;22;20393;-79
2023/03/28 00:17:48;;;;;;;0.77;0.10;;;10.20;22.00;;;;;;6241987;23;20372;-79
2023/03/28 00:20:16;;;;;;;0.98;0.20;;;10.20;21.90;;;;;;6214638;22;20475;-79
2023/03/28 00:22:43;;;;;;;0.50;0.20;;;10.20;21.90;;;;;;6215039;23;20373;-80
2023/03/28 00:25:10;;;;;;;0.60;0.20;;;10.20;22.20;;;;;;6214293;23;20392;-79
2023/03/28 00:27:37;;;;;;;0.82;0.20;;;10.20;21.70;;;;;;6215323;23;20902;-78
2023/03/28 00:30:06;;;;;;;0.22;0.10;;;10.30;21.80;;;;;;6241788;23;20427;-79
2023/03/28 00:32:33;;;;;;;0.60;0.20;;;10.30;21.90;;;;;;6241085;23;20392;-79
2023/03/28 00:35:00;;;;;;;1.10;0.30;;;10.30;21.90;;;;;;6215326;23;20380;-79
2023/03/28 00:37:27;;;;;;;1.40;0.20;;;10.30;22.00;;;;;;6213869;23;20373;-79
2023/03/28 00:39:54;;;;;;;0.40;0.28;;;10.20;21.90;;;;;;6215109;23;20365;-79
2023/03/28 00:42:23;;;;;;;0.90;0.20;;;10.20;21.90;;;;;;6214020;23;20704;-79
2023/03/28 00:44:55;;;;;;;1.70;0.20;;;10.20;21.80;;;;;;6215098;23;20401;-79
2023/03/28 00:47:25;;;;;;;0.45;0.10;;;10.20;22.00;;;;;;6214738;23;20376;-79
2023/03/28 00:50:18;;;;;;;1.77;0.20;;;10.20;21.40;;;;;;6215359;23;20456;-79
2023/03/28 00:53:12;;;;;;;0.80;0.30;;;10.10;21.70;;;;;;6214889;23;20695;-79
2023/03/28 00:56:00;;;;;;;0.43;0.20;;;10.00;21.70;;;;;;6214464;23;20391;-78
2023/03/28 00:58:32;;;;;;;0.52;0.30;;;10.00;22.50;;;;;;6213659;23;20750;-79
2023/03/28 01:00:59;;;;;;;0.30;0.20;;;9.80;23.30;;;;;;6215531;23;20365;-80
2023/03/28 12:30:19;;;;;;;1.10;0.70;;;17.30;23.20;;;;;;6194669;22;20373;-82
2023/03/28 12:32:58;;;;;;;1.38;0.70;;;17.40;22.50;;;;;;6224561;22;20381;-79
2023/03/28 12:35:37;;;;;;;1.90;0.55;;;17.50;22.00;;;;;;6242068;22;20742;-81
2023/03/28 12:38:15;;;;;;;1.73;0.60;;;17.60;22.70;;;;;;6241935;23;20712;-80
2023/03/28 12:40:47;;;;;;;0.80;0.60;;;17.60;22.90;;;;;;6241192;22;20369;-81
2023/03/28 12:43:17;;;;;;;3.10;0.80;;;17.90;23.10;;;;;;6241393;23;20457;-81
2023/03/28 12:45:52;;;;;;;12.85;1.70;;;18.20;22.30;;;;;;6240261;22;20361;-82
2023/03/28 12:48:52;;;;;;;3.53;0.93;;;18.00;22.60;;;;;;6241789;23;20380;-81
2023/03/28 12:51:24;;;;;;;1.50;0.55;;;17.80;21.90;;;;;;6241661;22;20373;-81
2023/03/28 12:54:28;;;;;;;1.30;0.80;;;18.00;23.00;;;;;;6239601;23;20423;-80
2023/03/28 12:57:00;;;;;;;1.05;0.80;;;17.90;21.90;;;;;;6227869;22;20467;-81
2023/03/28 12:59:41;;;;;;;3.20;0.80;;;17.90;22.80;;;;;;6241258;23;20381;-82
2023/03/28 13:02:14;;;;;;;3.55;0.90;;;17.80;22.00;;;;;;6239693;23;20380;-81
2023/03/28 13:04:53;;;;;;;1.20;0.80;;;17.70;22.90;;;;;;6241168;23;20373;-81
2023/03/28 13:07:44;;;;;;;2.05;0.90;;;17.60;22.20;;;;;;6240306;22;20400;-82
2023/03/28 13:10:23;;;;;;;3.73;1.27;;;17.80;22.40;;;;;;6239043;22;20445;-81
2023/03/28 13:12:57;;;;;;;2.28;0.80;;;17.90;21.90;;;;;;6240956;23;20380;-81
2023/03/28 13:15:28;;;;;;;1.00;0.60;;;18.20;22.70;;;;;;6241257;23;20414;-82
2023/03/28 13:18:32;;;;;;;1.80;0.90;;;18.30;22.10;;;;;;6241806;23;20373;-82
2023/03/28 13:21:03;;;;;;;1.17;0.70;;;18.40;21.40;;;;;;6095290;23;20871;-80
2023/03/28 13:23:33;;;;;;;2.85;1.05;;;18.40;21.60;;;;;;6215362;23;20388;-80
2023/03/28 13:26:03;;;;;;;1.50;0.80;;;18.30;21.60;;;;;;6241007;23;20377;-82
2023/03/28 13:28:38;;;;;;;1.25;0.88;;;18.30;21.90;;;;;;6242544;23;20421;-82
2023/03/28 13:31:10;;;;;;;4.35;2.28;;;18.30;21.70;;;;;;6242955;22;20368;-83
2023/03/28 13:33:45;;;;;;;1.98;0.82;;;18.60;23.90;;;;;;6243954;23;20435;-83
2023/03/28 13:36:20;;;;;;;2.08;0.80;;;19.10;23.70;;;;;;6247646;22;20365;-85
2023/03/28 13:39:09;;;;;;;4.28;0.80;;;19.40;22.50;;;;;;6249149;23;20369;-83
2023/03/28 13:41:54;;;;;;;2.45;0.70;;;19.30;21.40;;;;;;6216520;22;20358;-82
2023/03/28 13:44:35;;;;;;;0.93;0.68;;;19.30;21.10;;;;;;6239398;22;20456;-81
2023/03/28 13:47:03;;;;;;;2.90;0.80;;;19.00;20.90;;;;;;6242234;23;20361;-83
2023/03/28 13:49:30;;;;;;;2.67;0.68;;;19.00;21.70;;;;;;6242095;22;20735;-81
2023/03/28 13:52:14;;;;;;;1.85;0.80;;;18.80;21.60;;;;;;6240881;23;20388;-82
2023/03/28 13:54:41;;;;;;;1.33;0.70;;;18.70;20.90;;;;;;6238650;22;20357;-81
2023/03/28 13:57:16;;;;;;;1.00;0.50;;;18.60;21.50;;;;;;6240420;23;20479;-82
2023/03/28 14:00:05;;;;;;;1.50;0.70;;;18.70;22.00;;;;;;6240175;22;20353;-82
2023/03/28 14:03:03;;;;;;;1.30;0.70;;;18.80;21.90;;;;;;6239743;22;20411;-80
2023/03/28 14:05:32;;;;;;;1.38;0.90;;;18.70;21.30;;;;;;6210210;22;20722;-79
2023/03/28 14:08:14;;;;;;;1.40;0.70;;;18.60;21.50;;;;;;6239925;23;20375;-80
2023/03/28 14:10:44;;;;;;;1.92;0.55;;;18.60;21.70;;;;;;6242845;22;20690;-80
2023/03/28 14:13:30;;;;;;;0.85;0.73;;;18.60;21.60;;;;;;6242768;23;20372;-80
2023/03/28 14:15:56;;;;;;;2.27;0.70;;;18.80;22.50;;;;;;6242163;22;20415;-80
2023/03/28 14:18:27;;;;;;;1.53;0.70;;;18.90;21.90;;;;;;6242116;23;20395;-80
2023/03/28 14:20:55;;;;;;;1.48;0.85;;;18.90;20.80;;;;;;6241531;22;20368;-81
2023/03/28 14:23:29;;;;;;;2.30;0.77;;;18.80;21.00;;;;;;6242207;23;20460;-79
2023/03/28 14:26:00;;;;;;;1.90;0.70;;;19.00;22.00;;;;;;6241432;22;20737;-80
2023/03/28 14:28:29;;;;;;;1.38;0.65;;;19.20;22.10;;;;;;6242582;23;20365;-80
2023/03/28 14:30:57;;;;;;;0.82;0.70;;;19.30;20.70;;;;;;6241348;22;20360;-80
2023/03/28 14:33:24;;;;;;;4.18;0.70;;;19.20;21.10;;;;;;6243871;22;20668;-80
2023/03/28 14:35:57;;;;;;;5.88;2.92;;;19.40;21.50;;;;;;6242653;22;20365;-80
2023/03/28 14:38:34;;;;;;;1.60;0.90;;;19.20;21.10;;;;;;6242407;23;20372;-80
2023/03/28 14:41:21;;;;;;;1.10;0.60;;;19.30;21.80;;;;;;6240855;22;20372;-80
2023/03/28 14:43:56;;;;;;;1.30;0.75;;;19.30;21.40;;;;;;6240746;22;20453;-81
2023/03/28 14:46:26;;;;;;;1.98;0.80;;;19.20;21.40;;;;;;6242100;23;20842;-80
2023/03/28 14:48:58;;;;;;;1.83;1.15;;;19.20;21.50;;;;;;6240909;22;20401;-80
2023/03/28 14:51:26;;;;;;;2.60;0.70;;;19.20;20.50;;;;;;6242066;23;20397;-80
2023/03/28 14:53:55;;;;;;;1.60;1.08;;;18.90;20.60;;;;;;6240968;22;20460;-81
2023/03/28 14:56:25;;;;;;;1.50;0.70;;;18.70;21.00;;;;;;6242038;23;20680;-80
2023/03/28 14:58:56;;;;;;;1.33;0.70;;;18.50;21.20;;;;;;6241135;22;20369;-80
2023/03/28 15:01:26;;;;;;;2.10;0.82;;;18.50;21.80;;;;;;6242490;23;20415;-81
2023/03/28 15:04:04;;;;;;;1.58;0.80;;;18.40;21.40;;;;;;6241245;22;20697;-81
2023/03/28 15:06:32;;;;;;;1.13;0.82;;;18.30;21.50;;;;;;6241695;23;20763;-80
2023/03/28 15:09:08;;;;;;;1.30;0.70;;;18.00;21.50;;;;;;6240546;22;20846;-82
2023/03/28 15:11:40;;;;;;;0.98;0.60;;;17.90;21.50;;;;;;6245628;22;20755;-83
2023/03/28 15:14:22;;;;;;;1.55;0.77;;;17.80;22.00;;;;;;6241961;22;21230;-80
2023/03/28 15:16:50;;;;;;;1.38;0.70;;;17.60;21.90;;;;;;6241252;22;20702;-80
2023/03/28 15:19:21;;;;;;;3.13;1.75;;;17.60;21.80;;;;;;6242349;23;20392;-81
2023/03/28 15:21:57;;;;;;;14.20;8.82;;;17.50;21.90;;;;;;6238089;22;20369;-80
2023/03/28 15:24:26;;;;;;;2.60;1.20;;;17.50;22.10;;;;;;6242050;23;20423;-81
2023/03/28 15:26:57;;;;;;;6.97;4.30;;;17.50;22.30;;;;;;6240438;22;20456;-79
2023/03/28 15:29:26;;;;;;;3.78;2.72;;;17.60;21.90;;;;;;6241232;23;20460;-81
2023/03/28 15:31:59;;;;;;;2.53;1.40;;;17.70;21.80;;;;;;6240811;22;20711;-81
2023/03/28 15:34:26;;;;;;;1.27;1.02;;;17.80;22.80;;;;;;6241995;23;20400;-81
2023/03/28 15:36:59;;;;;;;1.05;0.57;;;18.00;22.70;;;;;;6240233;22;20380;-80
2023/03/28 15:39:30;;;;;;;1.25;0.60;;;18.10;22.90;;;;;;6241410;23;20369;-81
2023/03/28 15:42:33;;;;;;;1.05;0.80;;;18.50;22.60;;;;;;6241514;22;20419;-80
2023/03/28 15:45:00;;;;;;;2.05;0.68;;;18.70;22.30;;;;;;6164316;22;20399;-81
2023/03/28 15:47:30;;;;;;;0.80;0.50;;;19.00;22.00;;;;;;6241404;23;20361;-80
2023/03/28 15:50:11;;;;;;;1.02;0.70;;;19.20;21.10;;;;;;6239863;22;20393;-80
2023/03/28 15:52:41;;;;;;;1.10;0.73;;;19.20;20.60;;;;;;6239073;23;20389;-80
2023/03/28 15:55:14;;;;;;;1.58;0.77;;;19.40;20.40;;;;;;6240017;22;20357;-81
2023/03/28 15:57:46;;;;;;;0.98;0.60;;;19.70;20.60;;;;;;6241952;23;20393;-81
2023/03/28 16:00:41;;;;;;;1.02;0.80;;;20.10;20.70;;;;;;6242769;22;20365;-80
2023/03/28 16:03:20;;;;;;;1.75;0.85;;;20.60;19.70;;;;;;6240298;22;20381;-81
2023/03/28 16:06:12;;;;;;;2.22;0.70;;;21.10;19.00;;;;;;6241377;23;20711;-80
2023/03/28 16:09:14;;;;;;;1.40;0.70;;;21.30;18.60;;;;;;6240885;22;20456;-81
2023/03/28 16:11:42;;;;;;;1.77;0.80;;;21.40;18.70;;;;;;6240556;22;20376;-81
2023/03/28 16:14:15;;;;;;;1.30;0.60;;;21.40;18.60;;;;;;6241098;23;20365;-81
2023/03/28 16:16:43;;;;;;;1.58;0.70;;;21.40;18.40;;;;;;6237799;22;20423;-81
2023/03/28 16:19:31;;;;;;;1.60;0.70;;;21.00;18.90;;;;;;6241321;23;20369;-80
2023/03/28 16:21:59;;;;;;;19.38;11.45;;;20.90;19.00;;;;;;6240200;22;20415;-81
2023/03/28 16:24:27;;;;;;;1.95;0.80;;;20.70;18.90;;;;;;6240990;23;20684;-81
2023/03/28 16:26:54;;;;;;;1.02;0.60;;;20.50;19.50;;;;;;6240397;22;20373;-81
2023/03/28 16:29:21;;;;;;;1.42;0.82;;;20.30;19.50;;;;;;6240764;23;20491;-81
2023/03/28 16:31:48;;;;;;;2.13;1.23;;;19.90;19.60;;;;;;6214814;22;20373;-80
2023/03/28 16:34:15;;;;;;;3.67;2.05;;;19.70;19.60;;;;;;6240491;23;20388;-81
2023/03/28 16:36:41;;;;;;;1.27;0.70;;;19.40;20.30;;;;;;6237343;22;20739;-80
2023/03/28 16:39:09;;;;;;;1.63;0.55;;;19.10;21.30;;;;;;6241250;23;20427;-80
2023/03/28 16:41:36;;;;;;;1.27;0.57;;;18.90;21.20;;;;;;6242067;22;20373;-80
2023/03/28 16:44:03;;;;;;;1.00;0.60;;;18.70;20.80;;;;;;6245580;23;20764;-80
2023/03/28 16:46:30;;;;;;;1.20;0.60;;;18.50;21.10;;;;;;6244153;23;20381;-80
2023/03/28 16:48:57;;;;;;;1.40;0.73;;;18.40;21.40;;;;;;6239823;22;20363;-81
2023/03/28 16:51:24;;;;;;;1.70;0.70;;;18.40;21.20;;;;;;6240895;23;20431;-80
2023/03/28 16:53:51;;;;;;;1.60;0.80;;;18.30;21.50;;;;;;6240407;22;20369;-80
2023/03/28 16:56:18;;;;;;;0.85;0.63;;;18.20;21.70;;;;;;6240773;23;20452;-80
2023/03/28 16:58:45;;;;;;;2.65;0.82;;;18.00;21.50;;;;;;6239315;22;20388;-81
2023/03/28 17:01:17;;;;;;;1.27;0.70;;;17.90;21.30;;;;;;6241261;23;20377;-80
2023/03/28 17:03:45;;;;;;;1.80;0.65;;;17.70;21.30;;;;;;6238723;22;20373;-81
2023/03/28 17:06:15;;;;;;;0.73;0.63;;;17.70;21.60;;;;;;6240372;23;20376;-81
2023/03/28 17:08:43;;;;;;;1.58;0.80;;;17.60;21.70;;;;;;6239575;22;20401;-80
2023/03/28 17:11:12;;;;;;;1.60;0.60;;;17.30;21.70;;;;;;6241170;23;20367;-81
2023/03/28 17:13:41;;;;;;;2.38;0.90;;;17.20;22.50;;;;;;6239590;22;20424;-81
2023/03/28 17:16:09;;;;;;;1.30;0.60;;;17.00;22.40;;;;;;6241732;22;20365;-80
2023/03/28 17:18:36;;;;;;;1.75;0.75;;;16.60;22.90;;;;;;6240699;23;20444;-80
2023/03/28 17:21:12;;;;;;;1.85;0.65;;;16.40;23.00;;;;;;6214729;22;20375;-81
2023/03/28 17:23:40;;;;;;;3.30;2.35;;;16.20;23.50;;;;;;6240403;23;20684;-81
2023/03/28 17:26:09;;;;;;;7.18;3.78;;;16.00;23.70;;;;;;6238682;23;20377;-81
2023/03/28 17:28:38;;;;;;;7.00;4.25;;;15.90;23.40;;;;;;6242165;22;20524;-81
2023/03/28 17:31:07;;;;;;;4.70;3.20;;;15.80;24.00;;;;;;6238928;22;20368;-81
2023/03/28 17:33:34;;;;;;;4.07;2.50;;;15.60;24.30;;;;;;6238922;23;20377;-80
2023/03/28 17:36:21;;;;;;;3.15;2.08;;;15.60;24.80;;;;;;6237917;22;20376;-81
2023/03/28 17:38:50;;;;;;;2.20;1.80;;;15.50;25.20;;;;;;6238473;22;20754;-81
2023/03/28 17:41:17;;;;;;;2.20;1.33;;;15.40;25.80;;;;;;6239528;23;20369;-80
2023/03/28 17:43:45;;;;;;;2.88;1.08;;;15.30;26.50;;;;;;6239387;22;20373;-81
2023/03/28 17:46:12;;;;;;;2.17;0.70;;;15.20;26.80;;;;;;6240887;22;20377;-80
2023/03/28 17:48:40;;;;;;;0.95;0.50;;;15.00;26.90;;;;;;6239473;23;20699;-82
2023/03/28 17:51:09;;;;;;;1.20;0.63;;;14.80;27.30;;;;;;6239632;22;20423;-80
2023/03/28 17:53:40;;;;;;;1.45;0.60;;;14.70;28.30;;;;;;6239258;23;20746;-79
2023/03/28 17:56:07;;;;;;;1.55;0.50;;;14.50;28.00;;;;;;6239583;22;20424;-80
2023/03/28 17:58:36;;;;;;;0.73;0.40;;;14.30;28.80;;;;;;6239610;23;20431;-80
2023/03/28 18:01:11;;;;;;;2.30;0.70;;;14.10;29.60;;;;;;6239503;22;20377;-80
2023/03/28 18:03:38;;;;;;;1.35;0.50;;;13.90;29.70;;;;;;6241036;22;20377;-78
2023/03/28 18:06:06;;;;;;;2.15;0.80;;;13.70;29.80;;;;;;6240312;22;20368;-81
2023/03/28 18:08:34;;;;;;;1.50;0.50;;;13.60;30.40;;;;;;6239819;23;20361;-80
2023/03/28 18:11:09;;;;;;;2.28;0.70;;;13.50;32.20;;;;;;6238785;22;20915;-80
2023/03/28 18:13:38;;;;;;;2.30;1.30;;;13.30;33.70;;;;;;6239073;23;20440;-82
2023/03/28 18:16:10;;;;;;;1.98;0.90;;;13.10;33.00;;;;;;6238689;22;20759;-80
2023/03/28 18:18:39;;;;;;;1.70;1.30;;;13.00;33.30;;;;;;6239675;23;20365;-80
2023/03/28 18:21:07;;;;;;;1.75;1.02;;;12.90;33.90;;;;;;6239350;22;20379;-81
2023/03/28 18:23:35;;;;;;;1.35;0.93;;;12.80;35.10;;;;;;6240032;23;20401;-82
2023/03/28 18:26:03;;;;;;;2.13;1.30;;;12.80;35.90;;;;;;6239022;22;20376;-80
2023/03/28 18:28:30;;;;;;;2.40;1.90;;;12.70;36.60;;;;;;6240266;23;20385;-80
2023/03/28 18:31:10;;;;;;;2.25;1.63;;;12.50;35.00;;;;;;6237374;22;20366;-80
2023/03/28 18:33:38;;;;;;;6.43;3.10;;;12.30;35.00;;;;;;6239626;23;20892;-80
2023/03/28 18:36:06;;;;;;;6.00;2.85;;;12.30;35.10;;;;;;6238853;22;20711;-80
2023/03/28 18:38:38;;;;;;;4.03;2.10;;;12.20;35.80;;;;;;6241596;22;20400;-80
2023/03/28 18:41:07;;;;;;;8.40;4.57;;;12.10;36.50;;;;;;6238913;22;20376;-81
2023/03/28 18:43:39;;;;;;;10.43;6.57;;;12.10;35.80;;;;;;6240387;23;20377;-81
2023/03/28 18:46:06;;;;;;;5.60;3.37;;;11.90;34.00;;;;;;6239097;22;20373;-80
2023/03/28 18:48:34;;;;;;;4.28;2.28;;;11.90;34.50;;;;;;6241360;22;20369;-80
2023/03/28 18:51:05;;;;;;;2.28;1.13;;;11.80;34.60;;;;;;6239064;22;20405;-80
2023/03/28 18:53:33;;;;;;;2.10;1.20;;;11.70;34.80;;;;;;6239754;23;20416;-80
2023/03/28 18:56:02;;;;;;;2.88;1.05;;;11.60;35.10;;;;;;6238954;22;20403;-79
2023/03/28 18:58:30;;;;;;;2.13;0.90;;;11.60;35.90;;;;;;6241721;23;20368;-79
2023/03/28 19:00:59;;;;;;;1.58;0.90;;;11.50;36.30;;;;;;6240461;22;20738;-79
2023/03/28 19:03:27;;;;;;;2.88;2.20;;;11.50;36.70;;;;;;6241099;23;20467;-80
2023/03/28 19:05:59;;;;;;;4.50;2.53;;;11.40;37.00;;;;;;6242473;22;20680;-80
2023/03/28 19:08:28;;;;;;;4.35;2.45;;;11.20;36.30;;;;;;6240926;23;20391;-79
2023/03/28 19:10:58;;;;;;;3.50;2.35;;;11.10;36.20;;;;;;6241021;22;20404;-80
2023/03/28 19:13:27;;;;;;;3.67;2.55;;;10.90;36.30;;;;;;6242421;22;20380;-80
2023/03/28 19:15:58;;;;;;;3.45;2.10;;;10.90;36.60;;;;;;6242259;22;20369;-79
2023/03/28 19:18:26;;;;;;;5.07;3.10;;;10.80;37.50;;;;;;6240890;23;20427;-79
2023/03/28 19:20:54;;;;;;;5.60;3.58;;;10.80;37.90;;;;;;6240876;22;20399;-80
2023/03/28 19:23:26;;;;;;;6.15;3.25;;;10.70;38.70;;;;;;6241132;23;20361;-80
2023/03/28 19:25:54;;;;;;;6.97;4.13;;;10.60;40.40;;;;;;6240361;22;20373;-79
2023/03/28 19:28:21;;;;;;;7.88;4.68;;;10.50;39.30;;;;;;6241208;23;20395;-79
2023/03/28 19:30:55;;;;;;;6.68;4.13;;;10.40;39.60;;;;;;6240953;23;20377;-80
2023/03/28 19:33:23;;;;;;;7.53;4.57;;;10.30;39.50;;;;;;6240699;23;20365;-80
2023/03/28 19:35:50;;;;;;;8.85;4.63;;;10.30;39.50;;;;;;6240967;23;20397;-81
2023/03/28 19:38:18;;;;;;;5.40;3.37;;;10.30;39.40;;;;;;6241323;22;20716;-80
2023/03/28 19:40:46;;;;;;;4.47;2.60;;;10.20;39.10;;;;;;6240533;23;20365;-79
2023/03/28 19:43:13;;;;;;;16.90;9.00;;;10.10;38.60;;;;;;6241706;22;20672;-79
2023/03/28 19:45:40;;;;;;;32.67;17.70;;;10.00;39.20;;;;;;6240815;23;20429;-80
2023/03/28 19:48:07;;;;;;;32.07;16.13;;;9.80;40.30;;;;;;6240342;22;20439;-80
2023/03/28 19:50:35;;;;;;;30.73;16.45;;;9.60;41.50;;;;;;6240543;23;20373;-80
2023/03/28 19:53:04;;;;;;;23.33;12.38;;;9.40;42.10;;;;;;6240253;22;20420;-79
2023/03/28 19:55:31;;;;;;;17.92;8.32;;;9.30;42.20;;;;;;6240980;23;20431;-79
2023/03/28 19:57:58;;;;;;;15.03;7.57;;;9.20;42.20;;;;;;6240812;23;20392;-79
2023/03/28 20:00:25;;;;;;;19.55;9.43;;;9.10;42.30;;;;;;6239675;22;20362;-79
2023/03/28 20:02:52;;;;;;;15.80;8.68;;;9.10;42.60;;;;;;6241079;23;20427;-80
2023/03/28 20:05:19;;;;;;;50.40;25.17;;;9.00;42.50;;;;;;6240040;22;20377;-79
2023/03/28 20:07:46;;;;;;;76.72;39.25;;;8.90;42.20;;;;;;6240493;23;20392;-79
2023/03/28 20:10:13;;;;;;;58.10;31.52;;;8.90;42.20;;;;;;6240013;22;20736;-79
2023/03/28 20:12:40;;;;;;;40.92;20.73;;;8.90;42.50;;;;;;6241053;23;20400;-79
2023/03/28 20:15:08;;;;;;;26.83;15.10;;;8.90;42.50;;;;;;6240514;22;20391;-79
2023/03/28 20:17:35;;;;;;;26.35;13.75;;;8.90;42.40;;;;;;6241128;23;20388;-78
2023/03/28 20:20:03;;;;;;;17.77;9.88;;;8.90;42.50;;;;;;6239852;22;20861;-79
2023/03/28 20:22:33;;;;;;;15.50;8.23;;;8.80;42.50;;;;;;6242413;22;20818;-79
2023/03/28 20:25:00;;;;;;;14.87;7.47;;;8.70;42.80;;;;;;6240043;23;20377;-79
2023/03/28 20:27:28;;;;;;;13.80;6.68;;;8.70;43.10;;;;;;6240756;22;20373;-81
2023/03/28 20:29:54;;;;;;;12.27;6.10;;;8.50;43.50;;;;;;6240338;23;20710;-78
2023/03/28 20:32:21;;;;;;;13.90;7.22;;;8.50;44.40;;;;;;6239834;22;20419;-79
2023/03/28 20:34:48;;;;;;;12.80;6.93;;;8.40;44.50;;;;;;6241088;23;20435;-78
2023/03/28 20:37:16;;;;;;;10.15;6.15;;;8.30;45.80;;;;;;6240163;22;20797;-79
2023/03/28 20:39:47;;;;;;;14.68;7.43;;;8.20;44.90;;;;;;6240352;23;20373;-78
2023/03/28 20:42:14;;;;;;;11.90;6.47;;;8.10;45.50;;;;;;6238537;22;20429;-79
2023/03/28 20:44:41;;;;;;;13.35;7.60;;;8.10;45.80;;;;;;6240688;23;20400;-78
2023/03/28 20:47:09;;;;;;;15.65;8.43;;;8.00;46.20;;;;;;6239835;22;20461;-78
2023/03/28 20:49:37;;;;;;;14.45;8.70;;;7.90;46.30;;;;;;6240587;23;20436;-79
2023/03/28 20:52:06;;;;;;;16.38;8.45;;;7.90;46.80;;;;;;6240822;23;20365;-79
2023/03/28 20:54:33;;;;;;;12.95;7.82;;;7.90;47.00;;;;;;6239994;22;20387;-79
2023/03/28 20:57:00;;;;;;;11.57;7.57;;;7.90;46.90;;;;;;6240484;23;20385;-79
2023/03/28 20:59:28;;;;;;;12.20;6.95;;;7.90;46.80;;;;;;6239676;22;20377;-78
2023/03/28 21:01:54;;;;;;;16.30;8.43;;;7.80;47.40;;;;;;6239605;23;20455;-78
2023/03/28 21:04:23;;;;;;;15.57;8.77;;;7.80;47.40;;;;;;6239656;22;20381;-78
2023/03/28 21:06:50;;;;;;;18.80;9.15;;;7.70;47.20;;;;;;6240130;23;20375;-78
2023/03/28 21:09:16;;;;;;;21.92;9.30;;;7.70;47.20;;;;;;6239703;22;20365;-78
2023/03/28 21:11:44;;;;;;;18.80;9.75;;;7.70;47.70;;;;;;6239861;23;20368;-79
2023/03/28 21:14:12;;;;;;;12.43;7.30;;;7.60;48.10;;;;;;6239334;22;20684;-79
2023/03/28 21:16:41;;;;;;;12.68;6.40;;;7.60;47.70;;;;;;6240772;23;20383;-77
2023/03/28 21:19:08;;;;;;;11.93;7.30;;;7.50;47.00;;;;;;6240370;23;20436;-78
2023/03/28 21:21:35;;;;;;;18.30;9.32;;;7.50;47.00;;;;;;6240406;22;20471;-78
2023/03/28 21:24:03;;;;;;;16.23;8.57;;;7.50;47.70;;;;;;6239617;23;20439;-79
2023/03/28 21:26:31;;;;;;;14.10;7.93;;;7.40;48.10;;;;;;6240095;22;20424;-78
2023/03/28 21:28:58;;;;;;;7.18;4.45;;;7.40;48.00;;;;;;6240833;23;20704;-78
2023/03/28 21:31:27;;;;;;;6.00;3.83;;;7.40;47.10;;;;;;6213728;22;20373;-79
2023/03/28 21:33:56;;;;;;;13.60;8.05;;;7.40;46.30;;;;;;6240128;23;20373;-78
2023/03/28 21:36:24;;;;;;;14.90;7.00;;;7.40;46.90;;;;;;6240095;22;20699;-79
2023/03/28 21:38:51;;;;;;;11.95;6.93;;;7.30;47.20;;;;;;6241862;22;20779;-78
2023/03/28 21:41:19;;;;;;;11.77;7.38;;;7.20;47.40;;;;;;6239605;22;20369;-78
2023/03/28 21:43:47;;;;;;;10.38;6.50;;;7.10;49.20;;;;;;6241199;22;20361;-78
2023/03/28 21:46:14;;;;;;;12.80;6.50;;;7.00;50.00;;;;;;6239171;22;20850;-79
2023/03/28 21:48:43;;;;;;;10.68;6.88;;;6.90;50.60;;;;;;6240204;23;20449;-78
2023/03/28 21:51:10;;;;;;;9.50;6.22;;;6.80;50.80;;;;;;6240494;23;20385;-78
2023/03/28 21:53:38;;;;;;;11.55;6.47;;;6.70;50.70;;;;;;6239466;22;20353;-78
2023/03/28 21:56:05;;;;;;;8.75;6.15;;;6.70;50.40;;;;;;6239338;23;20365;-79
2023/03/28 21:58:33;;;;;;;11.00;6.40;;;6.70;50.40;;;;;;6238997;22;20673;-79
2023/03/28 22:01:02;;;;;;;10.30;6.10;;;6.70;51.20;;;;;;6240030;23;20365;-78
2023/03/28 22:03:29;;;;;;;9.55;5.97;;;6.60;50.50;;;;;;6238525;22;20391;-78
2023/03/28 22:05:57;;;;;;;9.43;5.50;;;6.60;50.10;;;;;;6240328;23;20383;-78
2023/03/28 22:08:26;;;;;;;10.52;5.82;;;6.60;50.10;;;;;;6238865;22;20381;-78
2023/03/28 22:10:57;;;;;;;8.35;4.93;;;6.60;50.10;;;;;;6241815;22;20377;-78
2023/03/28 22:13:24;;;;;;;6.23;3.17;;;6.60;50.00;;;;;;6240764;22;20784;-78
2023/03/28 22:15:51;;;;;;;4.63;2.47;;;6.60;50.10;;;;;;6240154;23;20380;-78
2023/03/28 22:18:19;;;;;;;4.38;2.10;;;6.60;50.00;;;;;;6238817;22;20882;-78
2023/03/28 22:20:51;;;;;;;6.43;3.25;;;6.60;49.60;;;;;;6240211;23;20379;-78
2023/03/28 22:23:21;;;;;;;9.10;6.10;;;6.70;49.50;;;;;;6239109;22;20377;-77
2023/03/28 22:25:48;;;;;;;9.25;5.32;;;6.60;50.60;;;;;;6241457;22;20377;-78
2023/03/28 22:28:15;;;;;;;9.30;6.03;;;6.40;50.90;;;;;;6239997;23;20396;-79
2023/03/28 22:30:42;;;;;;;7.87;5.83;;;6.30;52.80;;;;;;6241689;22;20523;-78
2023/03/28 22:33:09;;;;;;;10.38;6.00;;;6.20;52.80;;;;;;6243301;22;20379;-78
2023/03/28 22:35:37;;;;;;;9.48;5.72;;;6.10;53.60;;;;;;6241240;22;20372;-78
2023/03/28 22:38:04;;;;;;;8.43;5.93;;;6.10;53.30;;;;;;6241605;23;20399;-78
2023/03/28 22:40:33;;;;;;;10.63;6.32;;;6.10;53.10;;;;;;6242483;22;20396;-78
2023/03/28 22:43:00;;;;;;;7.80;5.43;;;6.00;53.80;;;;;;6241622;23;20388;-77
2023/03/28 22:45:27;;;;;;;8.27;5.50;;;6.00;54.20;;;;;;6240729;22;20396;-78
2023/03/28 22:47:57;;;;;;;7.93;5.53;;;5.90;54.30;;;;;;6241620;23;20379;-77
2023/03/28 22:50:25;;;;;;;7.70;5.18;;;5.90;54.00;;;;;;6242393;22;20427;-78
2023/03/28 22:52:52;;;;;;;10.18;6.32;;;5.90;54.00;;;;;;6241635;23;20376;-77
2023/03/28 22:55:21;;;;;;;10.60;5.50;;;5.90;54.20;;;;;;6242829;22;20738;-77
2023/03/28 22:57:51;;;;;;;9.25;5.25;;;5.90;54.40;;;;;;6241136;22;20434;-78
2023/03/28 23:00:22;;;;;;;8.70;5.32;;;5.80;54.10;;;;;;6241132;23;20375;-78
2023/03/28 23:02:50;;;;;;;8.50;5.47;;;5.80;53.80;;;;;;6216688;22;20385;-78
2023/03/28 23:05:18;;;;;;;8.77;5.15;;;5.80;54.10;;;;;;6241335;23;20431;-77
2023/03/28 23:07:45;;;;;;;8.70;4.72;;;5.90;54.60;;;;;;6240826;22;20385;-78
2023/03/28 23:10:16;;;;;;;7.25;4.40;;;5.80;54.50;;;;;;6241214;23;20373;-78
2023/03/28 23:12:43;;;;;;;10.23;5.22;;;5.80;54.40;;;;;;6241099;22;20390;-78
2023/03/28 23:15:11;;;;;;;7.13;4.60;;;5.90;54.60;;;;;;6241139;23;20803;-77
2023/03/28 23:17:38;;;;;;;15.23;8.30;;;5.90;55.10;;;;;;6240249;22;20373;-78
2023/03/28 23:20:11;;;;;;;16.15;9.45;;;5.80;55.50;;;;;;6240265;23;20377;-77
2023/03/28 23:22:39;;;;;;;18.27;8.80;;;5.70;56.60;;;;;;6240788;22;20377;-78
2023/03/28 23:25:07;;;;;;;16.17;8.63;;;5.60;56.10;;;;;;6241202;23;20382;-78
2023/03/28 23:27:34;;;;;;;14.88;9.25;;;5.60;56.20;;;;;;6240529;22;20372;-78
2023/03/28 23:30:01;;;;;;;18.13;9.50;;;5.50;56.00;;;;;;6242411;22;20711;-78
2023/03/28 23:32:28;;;;;;;17.98;9.38;;;5.50;56.20;;;;;;6240693;22;20427;-77
2023/03/28 23:34:55;;;;;;;18.17;9.48;;;5.40;56.50;;;;;;6240803;23;20381;-78
2023/03/28 23:37:26;;;;;;;12.20;7.70;;;5.40;56.20;;;;;;6241089;23;20403;-78
2023/03/28 23:39:54;;;;;;;16.35;8.65;;;5.40;56.70;;;;;;6240306;22;20369;-78
2023/03/28 23:42:22;;;;;;;24.55;12.70;;;5.30;57.00;;;;;;6240140;23;20377;-77
2023/03/28 23:44:50;;;;;;;23.58;12.35;;;5.20;57.20;;;;;;6240262;22;20440;-77
2023/03/28 23:47:19;;;;;;;21.63;11.15;;;5.00;58.40;;;;;;6241074;23;20711;-77
2023/03/28 23:49:46;;;;;;;20.23;10.52;;;4.80;60.00;;;;;;6242027;22;20377;-77
2023/03/28 23:52:14;;;;;;;19.85;10.38;;;4.70;58.90;;;;;;6240704;23;20395;-77
2023/03/28 23:54:42;;;;;;;15.88;8.57;;;4.80;59.00;;;;;;6240426;22;20741;-78
2023/03/28 23:57:10;;;;;;;13.82;7.55;;;4.70;59.30;;;;;;6240902;23;20373;-77
2023/03/28 23:59:37;;;;;;;12.52;7.55;;;4.70;59.40;;;;;;6240390;22;20392;-77
